sensor_id;sensor_type;location;lat;lon;timestamp;temperature;humidity
32877;DHT22;19226;51.600;8.034;2023-05-29T00:02:18;15.50;99.90
32877;DHT22;19226;51.600;8.034;2023-05-29T00:05:03;15.40;99.90
32877;DHT22;19226;51.600;8.034;2023-05-29T00:07:50;15.30;99.90
32877;DHT22;19226;51.600;8.034;2023-05-29T00:10:34;15.20;99.90
32877;DHT22;19226;51.600;8.034;2023-05-29T00:13:19;15.10;99.90
32877;DHT22;19226;51.600;8.034;2023-05-29T00:16:04;15.10;99.90
32877;DHT22;19226;51.600;8.034;2023-05-29T00:18:49;15.00;99.90
32877;DHT22;19226;51.600;8.034;2023-05-29T00:21:33;15.00;99.90
32877;DHT22;19226;51.600;8.034;2023-05-29T00:24:18;14.90;99.90
32877;DHT22;19226;51.600;8.034;2023-05-29T00:27:04;14.80;99.90
32877;DHT22;19226;51.600;8.034;2023-05-29T00:29:48;14.80;99.90
32877;DHT22;19226;51.600;8.034;2023-05-29T00:32:33;14.70;99.90
32877;DHT22;19226;51.600;8.034;2023-05-29T00:35:18;14.70;99.90
32877;DHT22;19226;51.600;8.034;2023-05-29T00:38:02;14.70;99.90
32877;DHT22;19226;51.600;8.034;2023-05-29T00:40:47;14.70;99.90
32877;DHT22;19226;51.600;8.034;2023-05-29T00:43:32;14.60;99.90
32877;DHT22;19226;51.600;8.034;2023-05-29T00:46:16;14.60;99.90
32877;DHT22;19226;51.600;8.034;2023-05-29T00:49:01;14.50;99.90
32877;DHT22;19226;51.600;8.034;2023-05-29T00:51:48;14.40;99.90
32877;DHT22;19226;51.600;8.034;2023-05-29T00:54:33;14.30;99.90
32877;DHT22;19226;51.600;8.034;2023-05-29T00:57:18;14.20;99.90
32877;DHT22;19226;51.600;8.034;2023-05-29T01:00:04;14.20;99.90
32877;DHT22;19226;51.600;8.034;2023-05-29T01:02:52;14.20;99.90
32877;DHT22;19226;51.600;8.034;2023-05-29T01:05:37;14.20;99.90
32877;DHT22;19226;51.600;8.034;2023-05-29T01:08:21;14.10;99.90
32877;DHT22;19226;51.600;8.034;2023-05-29T01:11:36;14.10;99.90
32877;DHT22;19226;51.600;8.034;2023-05-29T01:14:48;14.00;99.90
32877;DHT22;19226;51.600;8.034;2023-05-29T01:20:53;13.90;99.90
32877;DHT22;19226;51.600;8.034;2023-05-29T01:23:59;13.80;99.90
32877;DHT22;19226;51.600;8.034;2023-05-29T01:27:05;13.80;99.90
32877;DHT22;19226;51.600;8.034;2023-05-29T01:29:52;13.70;99.90
32877;DHT22;19226;51.600;8.034;2023-05-29T01:32:39;13.70;99.90
32877;DHT22;19226;51.600;8.034;2023-05-29T01:35:25;13.60;99.90
32877;DHT22;19226;51.600;8.034;2023-05-29T01:38:12;13.60;99.90
32877;DHT22;19226;51.600;8.034;2023-05-29T01:40:57;13.50;99.90
32877;DHT22;19226;51.600;8.034;2023-05-29T01:43:44;13.40;99.90
32877;DHT22;19226;51.600;8.034;2023-05-29T01:46:29;13.40;99.90
32877;DHT22;19226;51.600;8.034;2023-05-29T01:49:15;13.40;99.90
32877;DHT22;19226;51.600;8.034;2023-05-29T01:52:00;13.40;99.90
32877;DHT22;19226;51.600;8.034;2023-05-29T01:54:44;13.30;99.90
32877;DHT22;19226;51.600;8.034;2023-05-29T01:57:29;13.30;99.90
32877;DHT22;19226;51.600;8.034;2023-05-29T02:00:15;13.30;99.90
32877;DHT22;19226;51.600;8.034;2023-05-29T02:03:00;13.20;99.90
32877;DHT22;19226;51.600;8.034;2023-05-29T02:05:46;13.20;99.90
32877;DHT22;19226;51.600;8.034;2023-05-29T02:08:30;13.10;99.90
32877;DHT22;19226;51.600;8.034;2023-05-29T02:11:15;13.10;99.90
32877;DHT22;19226;51.600;8.034;2023-05-29T02:14:00;13.00;99.90
32877;DHT22;19226;51.600;8.034;2023-05-29T02:16:48;12.90;99.90
32877;DHT22;19226;51.600;8.034;2023-05-29T02:19:34;13.00;99.90
32877;DHT22;19226;51.600;8.034;2023-05-29T02:22:18;12.90;99.90
32877;DHT22;19226;51.600;8.034;2023-05-29T02:25:03;12.90;99.90
32877;DHT22;19226;51.600;8.034;2023-05-29T02:27:48;12.90;99.90
32877;DHT22;19226;51.600;8.034;2023-05-29T02:30:34;12.90;99.90
32877;DHT22;19226;51.600;8.034;2023-05-29T02:33:18;12.80;99.90
32877;DHT22;19226;51.600;8.034;2023-05-29T02:36:03;12.80;99.90
32877;DHT22;19226;51.600;8.034;2023-05-29T02:38:49;12.70;99.90
32877;DHT22;19226;51.600;8.034;2023-05-29T02:41:35;12.70;99.90
32877;DHT22;19226;51.600;8.034;2023-05-29T02:44:19;12.60;99.90
32877;DHT22;19226;51.600;8.034;2023-05-29T02:47:04;12.70;99.90
32877;DHT22;19226;51.600;8.034;2023-05-29T02:49:49;12.70;99.90
32877;DHT22;19226;51.600;8.034;2023-05-29T02:52:33;12.70;99.90
32877;DHT22;19226;51.600;8.034;2023-05-29T02:55:18;12.60;99.90
32877;DHT22;19226;51.600;8.034;2023-05-29T02:58:02;12.60;99.90
32877;DHT22;19226;51.600;8.034;2023-05-29T03:00:47;12.60;99.90
32877;DHT22;19226;51.600;8.034;2023-05-29T03:03:31;12.50;99.90
32877;DHT22;19226;51.600;8.034;2023-05-29T03:06:16;12.50;99.90
32877;DHT22;19226;51.600;8.034;2023-05-29T03:09:03;12.50;99.90
32877;DHT22;19226;51.600;8.034;2023-05-29T03:11:49;12.50;99.90
32877;DHT22;19226;51.600;8.034;2023-05-29T03:14:34;12.40;99.90
32877;DHT22;19226;51.600;8.034;2023-05-29T03:17:23;12.40;99.90
32877;DHT22;19226;51.600;8.034;2023-05-29T03:20:07;12.30;99.90
32877;DHT22;19226;51.600;8.034;2023-05-29T03:22:52;12.30;99.90
32877;DHT22;19226;51.600;8.034;2023-05-29T03:25:37;12.30;99.90
32877;DHT22;19226;51.600;8.034;2023-05-29T03:28:22;12.20;99.90
32877;DHT22;19226;51.600;8.034;2023-05-29T03:31:08;12.20;99.90
32877;DHT22;19226;51.600;8.034;2023-05-29T03:33:52;12.20;99.90
32877;DHT22;19226;51.600;8.034;2023-05-29T03:36:46;12.10;99.90
32877;DHT22;19226;51.600;8.034;2023-05-29T03:39:31;12.10;99.90
32877;DHT22;19226;51.600;8.034;2023-05-29T03:42:16;12.10;99.90
32877;DHT22;19226;51.600;8.034;2023-05-29T03:45:01;12.10;99.90
32877;DHT22;19226;51.600;8.034;2023-05-29T03:47:46;12.00;99.90
32877;DHT22;19226;51.600;8.034;2023-05-29T03:50:31;11.90;99.90
32877;DHT22;19226;51.600;8.034;2023-05-29T03:53:16;11.90;99.90
32877;DHT22;19226;51.600;8.034;2023-05-29T03:56:01;11.90;99.90
32877;DHT22;19226;51.600;8.034;2023-05-29T03:58:47;11.90;99.90
32877;DHT22;19226;51.600;8.034;2023-05-29T04:01:32;11.90;99.90
32877;DHT22;19226;51.600;8.034;2023-05-29T04:04:16;11.90;99.90
32877;DHT22;19226;51.600;8.034;2023-05-29T04:07:03;11.80;99.90
32877;DHT22;19226;51.600;8.034;2023-05-29T04:09:49;11.80;99.90
32877;DHT22;19226;51.600;8.034;2023-05-29T04:12:34;11.80;99.90
32877;DHT22;19226;51.600;8.034;2023-05-29T04:15:18;11.80;99.90
32877;DHT22;19226;51.600;8.034;2023-05-29T04:18:03;11.80;99.90
32877;DHT22;19226;51.600;8.034;2023-05-29T04:20:48;11.80;99.90
32877;DHT22;19226;51.600;8.034;2023-05-29T04:23:32;11.70;99.90
32877;DHT22;19226;51.600;8.034;2023-05-29T04:26:17;11.80;99.90
32877;DHT22;19226;51.600;8.034;2023-05-29T04:29:03;11.90;99.90
32877;DHT22;19226;51.600;8.034;2023-05-29T04:31:50;11.90;99.90
32877;DHT22;19226;51.600;8.034;2023-05-29T04:34:35;12.00;99.90
32877;DHT22;19226;51.600;8.034;2023-05-29T04:37:20;12.00;99.90
32877;DHT22;19226;51.600;8.034;2023-05-29T04:40:14;12.00;99.90
32877;DHT22;19226;51.600;8.034;2023-05-29T04:43:03;12.10;99.90
32877;DHT22;19226;51.600;8.034;2023-05-29T04:46:03;12.10;99.90
32877;DHT22;19226;51.600;8.034;2023-05-29T04:48:49;12.20;99.90
32877;DHT22;19226;51.600;8.034;2023-05-29T04:51:37;12.20;99.90
32877;DHT22;19226;51.600;8.034;2023-05-29T04:54:24;12.30;99.90
32877;DHT22;19226;51.600;8.034;2023-05-29T04:57:12;12.30;99.90
32877;DHT22;19226;51.600;8.034;2023-05-29T04:59:58;12.50;99.90
32877;DHT22;19226;51.600;8.034;2023-05-29T05:02:42;12.50;99.90
32877;DHT22;19226;51.600;8.034;2023-05-29T05:05:28;12.50;99.90
32877;DHT22;19226;51.600;8.034;2023-05-29T05:08:16;12.60;99.90
32877;DHT22;19226;51.600;8.034;2023-05-29T05:11:02;12.60;99.90
32877;DHT22;19226;51.600;8.034;2023-05-29T05:13:47;12.70;99.90
32877;DHT22;19226;51.600;8.034;2023-05-29T05:16:32;12.70;99.90
32877;DHT22;19226;51.600;8.034;2023-05-29T05:19:17;12.70;99.90
32877;DHT22;19226;51.600;8.034;2023-05-29T05:22:02;12.70;99.90
32877;DHT22;19226;51.600;8.034;2023-05-29T05:24:47;12.80;99.90
32877;DHT22;19226;51.600;8.034;2023-05-29T05:27:31;12.80;99.90
32877;DHT22;19226;51.600;8.034;2023-05-29T05:30:16;12.90;99.90
32877;DHT22;19226;51.600;8.034;2023-05-29T05:33:01;12.90;99.90
32877;DHT22;19226;51.600;8.034;2023-05-29T05:35:45;13.00;99.90
32877;DHT22;19226;51.600;8.034;2023-05-29T05:38:29;13.00;99.90
32877;DHT22;19226;51.600;8.034;2023-05-29T05:41:16;13.10;99.90
32877;DHT22;19226;51.600;8.034;2023-05-29T05:44:01;13.10;99.90
32877;DHT22;19226;51.600;8.034;2023-05-29T05:47:17;13.20;99.90
32877;DHT22;19226;51.600;8.034;2023-05-29T05:50:05;13.30;99.90
32877;DHT22;19226;51.600;8.034;2023-05-29T05:52:50;13.40;99.90
32877;DHT22;19226;51.600;8.034;2023-05-29T05:55:35;13.50;99.90
32877;DHT22;19226;51.600;8.034;2023-05-29T05:58:19;13.50;99.90
32877;DHT22;19226;51.600;8.034;2023-05-29T06:01:04;13.60;99.90
32877;DHT22;19226;51.600;8.034;2023-05-29T06:03:52;13.60;99.90
32877;DHT22;19226;51.600;8.034;2023-05-29T06:06:37;13.60;99.90
32877;DHT22;19226;51.600;8.034;2023-05-29T06:09:22;13.70;99.90
32877;DHT22;19226;51.600;8.034;2023-05-29T06:12:07;13.80;99.90
32877;DHT22;19226;51.600;8.034;2023-05-29T06:14:56;13.90;99.90
32877;DHT22;19226;51.600;8.034;2023-05-29T06:17:40;14.00;99.90
32877;DHT22;19226;51.600;8.034;2023-05-29T06:20:25;14.10;99.90
32877;DHT22;19226;51.600;8.034;2023-05-29T06:23:09;14.20;99.90
32877;DHT22;19226;51.600;8.034;2023-05-29T06:25:55;14.30;99.90
32877;DHT22;19226;51.600;8.034;2023-05-29T06:28:40;14.40;99.90
32877;DHT22;19226;51.600;8.034;2023-05-29T06:31:25;14.50;99.90
32877;DHT22;19226;51.600;8.034;2023-05-29T06:34:09;14.60;99.90
32877;DHT22;19226;51.600;8.034;2023-05-29T06:36:55;14.60;99.90
32877;DHT22;19226;51.600;8.034;2023-05-29T06:39:40;14.70;99.90
32877;DHT22;19226;51.600;8.034;2023-05-29T06:42:26;14.90;99.90
32877;DHT22;19226;51.600;8.034;2023-05-29T06:45:16;15.00;99.90
32877;DHT22;19226;51.600;8.034;2023-05-29T06:48:01;15.00;99.90
32877;DHT22;19226;51.600;8.034;2023-05-29T06:50:45;15.10;99.90
32877;DHT22;19226;51.600;8.034;2023-05-29T06:53:56;15.10;99.90
32877;DHT22;19226;51.600;8.034;2023-05-29T06:56:42;15.30;99.90
32877;DHT22;19226;51.600;8.034;2023-05-29T06:59:26;15.40;99.90
32877;DHT22;19226;51.600;8.034;2023-05-29T07:02:11;15.60;99.90
32877;DHT22;19226;51.600;8.034;2023-05-29T07:04:56;15.70;99.90
32877;DHT22;19226;51.600;8.034;2023-05-29T07:07:42;15.80;99.90
32877;DHT22;19226;51.600;8.034;2023-05-29T07:10:29;15.90;99.90
32877;DHT22;19226;51.600;8.034;2023-05-29T07:13:16;16.10;99.90
32877;DHT22;19226;51.600;8.034;2023-05-29T07:16:00;16.20;99.90
32877;DHT22;19226;51.600;8.034;2023-05-29T07:18:50;16.40;99.90
32877;DHT22;19226;51.600;8.034;2023-05-29T07:21:35;16.40;99.90
32877;DHT22;19226;51.600;8.034;2023-05-29T07:24:20;16.50;99.90
32877;DHT22;19226;51.600;8.034;2023-05-29T07:27:05;16.50;99.90
32877;DHT22;19226;51.600;8.034;2023-05-29T07:29:50;16.60;99.90
32877;DHT22;19226;51.600;8.034;2023-05-29T07:32:35;16.60;99.90
32877;DHT22;19226;51.600;8.034;2023-05-29T07:35:21;16.70;99.90
32877;DHT22;19226;51.600;8.034;2023-05-29T07:38:06;16.80;99.90
32877;DHT22;19226;51.600;8.034;2023-05-29T07:40:52;17.00;99.90
32877;DHT22;19226;51.600;8.034;2023-05-29T07:43:50;16.90;99.90
32877;DHT22;19226;51.600;8.034;2023-05-29T07:46:37;17.00;99.90
32877;DHT22;19226;51.600;8.034;2023-05-29T07:49:46;17.10;99.90
32877;DHT22;19226;51.600;8.034;2023-05-29T07:52:31;17.20;99.90
32877;DHT22;19226;51.600;8.034;2023-05-29T07:55:15;17.30;99.90
32877;DHT22;19226;51.600;8.034;2023-05-29T07:58:02;17.50;99.90
32877;DHT22;19226;51.600;8.034;2023-05-29T08:00:47;17.70;99.90
32877;DHT22;19226;51.600;8.034;2023-05-29T08:03:33;17.80;99.90
32877;DHT22;19226;51.600;8.034;2023-05-29T08:06:21;17.80;99.90
32877;DHT22;19226;51.600;8.034;2023-05-29T08:09:05;18.00;99.90
32877;DHT22;19226;51.600;8.034;2023-05-29T08:11:50;18.20;99.90
32877;DHT22;19226;51.600;8.034;2023-05-29T08:14:35;18.30;99.90
32877;DHT22;19226;51.600;8.034;2023-05-29T08:17:21;18.40;99.90
32877;DHT22;19226;51.600;8.034;2023-05-29T08:20:05;18.50;99.90
32877;DHT22;19226;51.600;8.034;2023-05-29T08:22:51;18.60;99.90
32877;DHT22;19226;51.600;8.034;2023-05-29T08:25:35;18.70;99.90
32877;DHT22;19226;51.600;8.034;2023-05-29T08:28:21;18.90;99.90
32877;DHT22;19226;51.600;8.034;2023-05-29T08:31:06;19.00;99.90
32877;DHT22;19226;51.600;8.034;2023-05-29T08:33:50;19.10;99.90
32877;DHT22;19226;51.600;8.034;2023-05-29T08:36:34;19.00;99.90
32877;DHT22;19226;51.600;8.034;2023-05-29T08:39:19;19.00;99.90
32877;DHT22;19226;51.600;8.034;2023-05-29T08:42:07;19.20;99.90
32877;DHT22;19226;51.600;8.034;2023-05-29T08:44:56;19.20;99.90
32877;DHT22;19226;51.600;8.034;2023-05-29T08:47:43;19.30;99.90
32877;DHT22;19226;51.600;8.034;2023-05-29T08:50:27;19.50;99.90
32877;DHT22;19226;51.600;8.034;2023-05-29T08:53:15;19.60;99.90
32877;DHT22;19226;51.600;8.034;2023-05-29T08:56:00;19.70;99.90
32877;DHT22;19226;51.600;8.034;2023-05-29T08:58:46;19.80;99.90
32877;DHT22;19226;51.600;8.034;2023-05-29T09:01:31;19.80;99.90
32877;DHT22;19226;51.600;8.034;2023-05-29T09:04:15;19.90;99.90
32877;DHT22;19226;51.600;8.034;2023-05-29T09:07:00;20.00;99.90
32877;DHT22;19226;51.600;8.034;2023-05-29T09:09:48;20.10;99.90
32877;DHT22;19226;51.600;8.034;2023-05-29T09:12:33;20.30;99.90
32877;DHT22;19226;51.600;8.034;2023-05-29T09:15:20;20.40;99.90
32877;DHT22;19226;51.600;8.034;2023-05-29T09:18:05;20.50;99.90
32877;DHT22;19226;51.600;8.034;2023-05-29T09:20:50;20.70;99.90
32877;DHT22;19226;51.600;8.034;2023-05-29T09:23:34;20.80;99.90
32877;DHT22;19226;51.600;8.034;2023-05-29T09:26:21;20.70;99.90
32877;DHT22;19226;51.600;8.034;2023-05-29T09:29:07;20.60;99.90
32877;DHT22;19226;51.600;8.034;2023-05-29T09:31:52;20.70;99.90
32877;DHT22;19226;51.600;8.034;2023-05-29T09:34:37;20.80;99.90
32877;DHT22;19226;51.600;8.034;2023-05-29T09:37:22;20.80;99.90
32877;DHT22;19226;51.600;8.034;2023-05-29T09:40:07;21.00;99.90
32877;DHT22;19226;51.600;8.034;2023-05-29T09:42:52;21.10;99.90
32877;DHT22;19226;51.600;8.034;2023-05-29T09:45:41;21.10;99.90
32877;DHT22;19226;51.600;8.034;2023-05-29T09:48:26;21.20;99.90
32877;DHT22;19226;51.600;8.034;2023-05-29T09:51:25;21.50;99.90
32877;DHT22;19226;51.600;8.034;2023-05-29T09:54:17;21.40;99.90
32877;DHT22;19226;51.600;8.034;2023-05-29T09:57:03;21.50;99.90
32877;DHT22;19226;51.600;8.034;2023-05-29T09:59:49;21.60;99.90
32877;DHT22;19226;51.600;8.034;2023-05-29T10:02:35;21.60;99.90
32877;DHT22;19226;51.600;8.034;2023-05-29T10:05:19;21.70;99.90
32877;DHT22;19226;51.600;8.034;2023-05-29T10:08:17;21.80;99.90
32877;DHT22;19226;51.600;8.034;2023-05-29T10:11:02;21.90;99.90
32877;DHT22;19226;51.600;8.034;2023-05-29T10:13:48;22.00;99.90
32877;DHT22;19226;51.600;8.034;2023-05-29T10:16:35;21.90;99.90
32877;DHT22;19226;51.600;8.034;2023-05-29T10:19:28;22.00;99.90
32877;DHT22;19226;51.600;8.034;2023-05-29T10:22:13;22.10;99.90
32877;DHT22;19226;51.600;8.034;2023-05-29T10:25:01;22.20;99.90
32877;DHT22;19226;51.600;8.034;2023-05-29T10:27:47;22.10;99.90
32877;DHT22;19226;51.600;8.034;2023-05-29T10:30:43;22.00;99.90
32877;DHT22;19226;51.600;8.034;2023-05-29T10:36:47;22.20;99.90
32877;DHT22;19226;51.600;8.034;2023-05-29T10:39:34;22.20;99.90
32877;DHT22;19226;51.600;8.034;2023-05-29T10:42:46;22.40;99.90
32877;DHT22;19226;51.600;8.034;2023-05-29T10:51:05;22.60;99.90
32877;DHT22;19226;51.600;8.034;2023-05-29T10:53:51;22.70;99.90
32877;DHT22;19226;51.600;8.034;2023-05-29T10:56:36;22.80;99.90
32877;DHT22;19226;51.600;8.034;2023-05-29T10:59:21;22.90;99.90
32877;DHT22;19226;51.600;8.034;2023-05-29T11:02:05;23.00;99.90
32877;DHT22;19226;51.600;8.034;2023-05-29T11:05:22;23.00;99.90
32877;DHT22;19226;51.600;8.034;2023-05-29T11:08:12;23.10;99.90
32877;DHT22;19226;51.600;8.034;2023-05-29T11:10:57;23.20;99.90
32877;DHT22;19226;51.600;8.034;2023-05-29T11:13:52;23.40;99.90
32877;DHT22;19226;51.600;8.034;2023-05-29T11:16:37;23.60;99.90
32877;DHT22;19226;51.600;8.034;2023-05-29T11:19:21;23.70;99.90
32877;DHT22;19226;51.600;8.034;2023-05-29T11:22:10;23.80;99.90
32877;DHT22;19226;51.600;8.034;2023-05-29T11:25:00;23.90;99.90
32877;DHT22;19226;51.600;8.034;2023-05-29T11:27:46;24.10;99.90
32877;DHT22;19226;51.600;8.034;2023-05-29T11:30:31;24.20;99.90
32877;DHT22;19226;51.600;8.034;2023-05-29T11:33:25;24.00;99.90
32877;DHT22;19226;51.600;8.034;2023-05-29T11:36:10;23.90;99.90
32877;DHT22;19226;51.600;8.034;2023-05-29T11:38:55;23.90;99.90
32877;DHT22;19226;51.600;8.034;2023-05-29T11:41:40;24.20;99.90
32877;DHT22;19226;51.600;8.034;2023-05-29T11:44:25;24.40;99.90
32877;DHT22;19226;51.600;8.034;2023-05-29T11:47:10;24.40;99.90
32877;DHT22;19226;51.600;8.034;2023-05-29T11:49:56;24.40;99.90
32877;DHT22;19226;51.600;8.034;2023-05-29T11:52:46;24.40;99.90
32877;DHT22;19226;51.600;8.034;2023-05-29T11:55:31;24.40;99.90
32877;DHT22;19226;51.600;8.034;2023-05-29T11:58:16;24.40;99.90
32877;DHT22;19226;51.600;8.034;2023-05-29T12:01:00;24.50;99.90
32877;DHT22;19226;51.600;8.034;2023-05-29T12:03:45;24.70;99.90
32877;DHT22;19226;51.600;8.034;2023-05-29T12:06:34;24.90;99.90
32877;DHT22;19226;51.600;8.034;2023-05-29T12:09:29;24.90;99.90
32877;DHT22;19226;51.600;8.034;2023-05-29T12:12:14;24.90;99.90
32877;DHT22;19226;51.600;8.034;2023-05-29T12:14:58;24.90;99.90
32877;DHT22;19226;51.600;8.034;2023-05-29T12:17:44;25.00;99.90
32877;DHT22;19226;51.600;8.034;2023-05-29T12:20:28;25.00;99.90
32877;DHT22;19226;51.600;8.034;2023-05-29T12:23:14;25.00;99.90
32877;DHT22;19226;51.600;8.034;2023-05-29T12:26:03;24.90;99.90
32877;DHT22;19226;51.600;8.034;2023-05-29T12:28:50;24.80;99.90
32877;DHT22;19226;51.600;8.034;2023-05-29T12:31:36;24.70;99.90
32877;DHT22;19226;51.600;8.034;2023-05-29T12:34:20;24.80;99.90
32877;DHT22;19226;51.600;8.034;2023-05-29T12:37:09;25.00;99.90
32877;DHT22;19226;51.600;8.034;2023-05-29T12:40:16;25.10;99.90
32877;DHT22;19226;51.600;8.034;2023-05-29T12:43:02;25.40;99.90
32877;DHT22;19226;51.600;8.034;2023-05-29T12:45:56;25.50;99.90
32877;DHT22;19226;51.600;8.034;2023-05-29T12:48:41;25.70;99.90
32877;DHT22;19226;51.600;8.034;2023-05-29T12:51:27;25.90;99.90
32877;DHT22;19226;51.600;8.034;2023-05-29T12:54:13;26.00;99.90
32877;DHT22;19226;51.600;8.034;2023-05-29T12:56:57;26.10;99.90
32877;DHT22;19226;51.600;8.034;2023-05-29T12:59:45;26.00;99.90
32877;DHT22;19226;51.600;8.034;2023-05-29T13:02:29;26.00;99.90
32877;DHT22;19226;51.600;8.034;2023-05-29T13:05:14;26.00;99.90
32877;DHT22;19226;51.600;8.034;2023-05-29T13:08:00;26.10;99.90
32877;DHT22;19226;51.600;8.034;2023-05-29T13:10:45;26.20;99.90
32877;DHT22;19226;51.600;8.034;2023-05-29T13:13:30;26.40;99.90
32877;DHT22;19226;51.600;8.034;2023-05-29T13:16:14;26.50;99.90
32877;DHT22;19226;51.600;8.034;2023-05-29T13:18:58;26.60;99.90
32877;DHT22;19226;51.600;8.034;2023-05-29T13:21:43;26.70;99.90
32877;DHT22;19226;51.600;8.034;2023-05-29T13:24:32;26.70;99.90
32877;DHT22;19226;51.600;8.034;2023-05-29T13:27:17;26.60;99.90
32877;DHT22;19226;51.600;8.034;2023-05-29T13:30:02;26.60;99.90
32877;DHT22;19226;51.600;8.034;2023-05-29T13:32:47;26.60;99.90
32877;DHT22;19226;51.600;8.034;2023-05-29T13:35:31;26.60;99.90
32877;DHT22;19226;51.600;8.034;2023-05-29T13:38:16;26.60;99.90
32877;DHT22;19226;51.600;8.034;2023-05-29T13:41:00;26.80;99.90
32877;DHT22;19226;51.600;8.034;2023-05-29T13:43:45;26.90;99.90
32877;DHT22;19226;51.600;8.034;2023-05-29T13:46:29;26.90;99.90
32877;DHT22;19226;51.600;8.034;2023-05-29T13:49:14;27.00;99.90
32877;DHT22;19226;51.600;8.034;2023-05-29T13:52:01;27.30;99.90
32877;DHT22;19226;51.600;8.034;2023-05-29T13:54:48;27.40;99.90
32877;DHT22;19226;51.600;8.034;2023-05-29T13:57:33;27.40;99.90
32877;DHT22;19226;51.600;8.034;2023-05-29T14:00:18;27.20;99.60
32877;DHT22;19226;51.600;8.034;2023-05-29T14:03:03;27.30;99.90
32877;DHT22;19226;51.600;8.034;2023-05-29T14:05:47;27.30;99.90
32877;DHT22;19226;51.600;8.034;2023-05-29T14:08:32;27.20;98.90
32877;DHT22;19226;51.600;8.034;2023-05-29T14:11:16;27.20;99.20
32877;DHT22;19226;51.600;8.034;2023-05-29T14:14:01;27.30;99.90
32877;DHT22;19226;51.600;8.034;2023-05-29T14:16:45;27.40;99.90
32877;DHT22;19226;51.600;8.034;2023-05-29T14:19:30;27.50;98.50
32877;DHT22;19226;51.600;8.034;2023-05-29T14:22:14;27.70;96.40
32877;DHT22;19226;51.600;8.034;2023-05-29T14:24:59;27.60;96.80
32877;DHT22;19226;51.600;8.034;2023-05-29T14:27:45;27.70;97.00
32877;DHT22;19226;51.600;8.034;2023-05-29T14:30:29;27.50;94.90
32877;DHT22;19226;51.600;8.034;2023-05-29T14:33:16;27.40;95.60
32877;DHT22;19226;51.600;8.034;2023-05-29T14:36:01;27.50;96.40
32877;DHT22;19226;51.600;8.034;2023-05-29T14:38:45;27.50;96.40
32877;DHT22;19226;51.600;8.034;2023-05-29T14:41:31;27.70;96.80
32877;DHT22;19226;51.600;8.034;2023-05-29T14:44:17;27.70;95.00
32877;DHT22;19226;51.600;8.034;2023-05-29T14:47:02;27.80;96.40
32877;DHT22;19226;51.600;8.034;2023-05-29T14:49:46;27.80;95.70
32877;DHT22;19226;51.600;8.034;2023-05-29T14:52:31;27.80;94.60
32877;DHT22;19226;51.600;8.034;2023-05-29T14:55:15;27.90;94.00
32877;DHT22;19226;51.600;8.034;2023-05-29T14:58:00;28.00;94.20
32877;DHT22;19226;51.600;8.034;2023-05-29T15:00:45;28.10;94.10
32877;DHT22;19226;51.600;8.034;2023-05-29T15:03:30;28.20;94.80
32877;DHT22;19226;51.600;8.034;2023-05-29T15:06:14;28.30;93.40
32877;DHT22;19226;51.600;8.034;2023-05-29T15:09:05;28.20;91.20
32877;DHT22;19226;51.600;8.034;2023-05-29T15:11:50;28.00;92.70
32877;DHT22;19226;51.600;8.034;2023-05-29T15:14:34;28.00;92.00
32877;DHT22;19226;51.600;8.034;2023-05-29T15:17:21;28.00;92.20
32877;DHT22;19226;51.600;8.034;2023-05-29T15:20:06;28.10;92.20
32877;DHT22;19226;51.600;8.034;2023-05-29T15:22:51;28.20;92.70
32877;DHT22;19226;51.600;8.034;2023-05-29T15:25:36;27.90;87.80
32877;DHT22;19226;51.600;8.034;2023-05-29T15:28:20;27.80;91.30
32877;DHT22;19226;51.600;8.034;2023-05-29T15:31:08;27.80;89.50
32877;DHT22;19226;51.600;8.034;2023-05-29T15:33:53;27.80;91.10
32877;DHT22;19226;51.600;8.034;2023-05-29T15:36:38;27.80;90.10
32877;DHT22;19226;51.600;8.034;2023-05-29T15:39:22;27.90;90.50
32877;DHT22;19226;51.600;8.034;2023-05-29T15:42:10;28.00;90.30
32877;DHT22;19226;51.600;8.034;2023-05-29T15:44:56;28.20;90.20
32877;DHT22;19226;51.600;8.034;2023-05-29T15:47:40;28.20;91.00
32877;DHT22;19226;51.600;8.034;2023-05-29T15:50:25;28.20;86.90
32877;DHT22;19226;51.600;8.034;2023-05-29T15:53:12;28.20;88.00
32877;DHT22;19226;51.600;8.034;2023-05-29T15:55:57;28.30;87.50
32877;DHT22;19226;51.600;8.034;2023-05-29T15:58:41;28.30;86.50
32877;DHT22;19226;51.600;8.034;2023-05-29T16:01:26;28.30;88.10
32877;DHT22;19226;51.600;8.034;2023-05-29T16:04:10;28.30;87.90
32877;DHT22;19226;51.600;8.034;2023-05-29T16:06:57;28.20;85.70
32877;DHT22;19226;51.600;8.034;2023-05-29T16:09:41;28.10;82.70
32877;DHT22;19226;51.600;8.034;2023-05-29T16:12:30;28.20;85.20
32877;DHT22;19226;51.600;8.034;2023-05-29T16:15:15;28.20;84.70
32877;DHT22;19226;51.600;8.034;2023-05-29T16:18:00;28.20;81.80
32877;DHT22;19226;51.600;8.034;2023-05-29T16:20:45;28.20;80.60
32877;DHT22;19226;51.600;8.034;2023-05-29T16:23:33;27.90;76.70
32877;DHT22;19226;51.600;8.034;2023-05-29T16:26:17;27.50;77.50
32877;DHT22;19226;51.600;8.034;2023-05-29T16:29:03;27.50;81.40
32877;DHT22;19226;51.600;8.034;2023-05-29T16:31:47;27.40;78.10
32877;DHT22;19226;51.600;8.034;2023-05-29T16:34:33;27.30;79.00
32877;DHT22;19226;51.600;8.034;2023-05-29T16:37:18;27.10;78.50
32877;DHT22;19226;51.600;8.034;2023-05-29T16:40:02;27.10;81.40
32877;DHT22;19226;51.600;8.034;2023-05-29T16:42:47;27.00;80.00
32877;DHT22;19226;51.600;8.034;2023-05-29T16:45:31;26.80;77.30
32877;DHT22;19226;51.600;8.034;2023-05-29T16:48:16;26.20;76.90
32877;DHT22;19226;51.600;8.034;2023-05-29T16:51:01;26.20;76.60
32877;DHT22;19226;51.600;8.034;2023-05-29T16:53:45;25.70;73.20
32877;DHT22;19226;51.600;8.034;2023-05-29T16:56:30;25.60;75.30
32877;DHT22;19226;51.600;8.034;2023-05-29T16:59:14;25.40;76.90
32877;DHT22;19226;51.600;8.034;2023-05-29T17:02:04;25.20;77.50
32877;DHT22;19226;51.600;8.034;2023-05-29T17:04:48;25.10;77.40
32877;DHT22;19226;51.600;8.034;2023-05-29T17:07:33;25.00;77.60
32877;DHT22;19226;51.600;8.034;2023-05-29T17:10:17;24.90;78.90
32877;DHT22;19226;51.600;8.034;2023-05-29T17:13:02;24.70;77.80
32877;DHT22;19226;51.600;8.034;2023-05-29T17:15:46;24.60;78.30
32877;DHT22;19226;51.600;8.034;2023-05-29T17:18:33;24.50;80.10
32877;DHT22;19226;51.600;8.034;2023-05-29T17:21:18;24.40;80.40
32877;DHT22;19226;51.600;8.034;2023-05-29T17:24:03;24.30;80.70
32877;DHT22;19226;51.600;8.034;2023-05-29T17:26:47;24.30;82.00
32877;DHT22;19226;51.600;8.034;2023-05-29T17:29:32;24.10;81.90
32877;DHT22;19226;51.600;8.034;2023-05-29T17:32:16;24.00;82.20
32877;DHT22;19226;51.600;8.034;2023-05-29T17:35:01;24.00;83.50
32877;DHT22;19226;51.600;8.034;2023-05-29T17:37:45;23.90;78.50
32877;DHT22;19226;51.600;8.034;2023-05-29T17:40:30;23.80;79.00
32877;DHT22;19226;51.600;8.034;2023-05-29T17:43:15;23.70;79.50